sensor_id;sensor_type;location;lat;lon;timestamp;temperature;humidity
9033;DHT22;4551;53.164;8.210;2023-07-22T00:01:58;13.50;99.90
9033;DHT22;4551;53.164;8.210;2023-07-22T00:04:26;13.40;99.90
9033;DHT22;4551;53.164;8.210;2023-07-22T00:06:54;13.40;99.90
9033;DHT22;4551;53.164;8.210;2023-07-22T00:09:22;13.40;99.90
9033;DHT22;4551;53.164;8.210;2023-07-22T00:11:51;13.40;99.90
9033;DHT22;4551;53.164;8.210;2023-07-22T00:14:19;13.40;99.90
9033;DHT22;4551;53.164;8.210;2023-07-22T00:16:47;13.30;99.90
9033;DHT22;4551;53.164;8.210;2023-07-22T00:19:16;13.30;99.90
9033;DHT22;4551;53.164;8.210;2023-07-22T00:21:47;13.30;99.90
9033;DHT22;4551;53.164;8.210;2023-07-22T00:24:15;13.30;99.90
9033;DHT22;4551;53.164;8.210;2023-07-22T00:26:44;13.30;99.90
9033;DHT22;4551;53.164;8.210;2023-07-22T00:29:12;13.30;99.90
9033;DHT22;4551;53.164;8.210;2023-07-22T00:31:40;13.20;99.90
9033;DHT22;4551;53.164;8.210;2023-07-22T00:34:08;13.20;99.90
9033;DHT22;4551;53.164;8.210;2023-07-22T00:36:38;13.20;99.90
9033;DHT22;4551;53.164;8.210;2023-07-22T00:39:06;13.10;99.90
9033;DHT22;4551;53.164;8.210;2023-07-22T00:41:34;13.10;99.90
9033;DHT22;4551;53.164;8.210;2023-07-22T00:44:02;13.10;99.90
9033;DHT22;4551;53.164;8.210;2023-07-22T00:46:30;13.10;99.90
9033;DHT22;4551;53.164;8.210;2023-07-22T00:48:59;13.10;99.90
9033;DHT22;4551;53.164;8.210;2023-07-22T00:51:27;13.00;99.90
9033;DHT22;4551;53.164;8.210;2023-07-22T00:53:56;13.10;99.90
9033;DHT22;4551;53.164;8.210;2023-07-22T00:56:24;13.10;99.90
9033;DHT22;4551;53.164;8.210;2023-07-22T00:58:52;13.00;99.90
9033;DHT22;4551;53.164;8.210;2023-07-22T01:01:20;13.00;99.90
9033;DHT22;4551;53.164;8.210;2023-07-22T01:03:49;13.00;99.90
9033;DHT22;4551;53.164;8.210;2023-07-22T01:06:17;13.00;99.90
9033;DHT22;4551;53.164;8.210;2023-07-22T01:08:46;13.00;99.90
9033;DHT22;4551;53.164;8.210;2023-07-22T01:11:15;13.00;99.90
9033;DHT22;4551;53.164;8.210;2023-07-22T01:13:44;13.00;99.90
9033;DHT22;4551;53.164;8.210;2023-07-22T01:16:12;13.00;99.90
9033;DHT22;4551;53.164;8.210;2023-07-22T01:18:40;13.00;99.90
9033;DHT22;4551;53.164;8.210;2023-07-22T01:21:08;13.00;99.90
9033;DHT22;4551;53.164;8.210;2023-07-22T01:23:38;13.00;99.90
9033;DHT22;4551;53.164;8.210;2023-07-22T01:26:06;12.90;99.90
9033;DHT22;4551;53.164;8.210;2023-07-22T01:28:34;12.90;99.90
9033;DHT22;4551;53.164;8.210;2023-07-22T01:31:02;12.90;99.90
9033;DHT22;4551;53.164;8.210;2023-07-22T01:33:32;12.90;99.90
9033;DHT22;4551;53.164;8.210;2023-07-22T01:36:00;12.90;99.90
9033;DHT22;4551;53.164;8.210;2023-07-22T01:38:28;12.90;99.90
9033;DHT22;4551;53.164;8.210;2023-07-22T01:40:59;12.90;99.90
9033;DHT22;4551;53.164;8.210;2023-07-22T01:43:27;12.90;99.90
9033;DHT22;4551;53.164;8.210;2023-07-22T01:45:55;12.80;99.90
9033;DHT22;4551;53.164;8.210;2023-07-22T01:48:23;12.80;99.90
9033;DHT22;4551;53.164;8.210;2023-07-22T01:50:51;12.80;99.90
9033;DHT22;4551;53.164;8.210;2023-07-22T01:53:20;12.80;99.90
9033;DHT22;4551;53.164;8.210;2023-07-22T01:55:48;12.80;99.90
9033;DHT22;4551;53.164;8.210;2023-07-22T01:58:17;12.80;99.90
9033;DHT22;4551;53.164;8.210;2023-07-22T02:00:48;12.80;99.90
9033;DHT22;4551;53.164;8.210;2023-07-22T02:03:16;12.80;99.90
9033;DHT22;4551;53.164;8.210;2023-07-22T02:05:45;12.80;99.90
9033;DHT22;4551;53.164;8.210;2023-07-22T02:08:13;12.70;99.90
9033;DHT22;4551;53.164;8.210;2023-07-22T02:10:41;12.80;99.90
9033;DHT22;4551;53.164;8.210;2023-07-22T02:13:09;12.70;99.90
9033;DHT22;4551;53.164;8.210;2023-07-22T02:15:39;12.80;99.90
9033;DHT22;4551;53.164;8.210;2023-07-22T02:18:08;12.70;99.90
9033;DHT22;4551;53.164;8.210;2023-07-22T02:20:36;12.70;99.90
9033;DHT22;4551;53.164;8.210;2023-07-22T02:23:05;12.70;99.90
9033;DHT22;4551;53.164;8.210;2023-07-22T02:25:36;12.70;99.90
9033;DHT22;4551;53.164;8.210;2023-07-22T02:28:05;12.60;99.90
9033;DHT22;4551;53.164;8.210;2023-07-22T02:30:33;12.60;99.90
9033;DHT22;4551;53.164;8.210;2023-07-22T02:33:04;12.60;99.90
9033;DHT22;4551;53.164;8.210;2023-07-22T02:35:33;12.60;99.90
9033;DHT22;4551;53.164;8.210;2023-07-22T02:38:01;12.50;99.90
9033;DHT22;4551;53.164;8.210;2023-07-22T02:40:29;12.60;99.90
9033;DHT22;4551;53.164;8.210;2023-07-22T02:42:57;12.60;99.90
9033;DHT22;4551;53.164;8.210;2023-07-22T02:45:25;12.60;99.90
9033;DHT22;4551;53.164;8.210;2023-07-22T02:47:53;12.50;99.90
9033;DHT22;4551;53.164;8.210;2023-07-22T02:50:23;12.50;99.90
9033;DHT22;4551;53.164;8.210;2023-07-22T02:52:52;12.50;99.90
9033;DHT22;4551;53.164;8.210;2023-07-22T02:55:20;12.50;99.90
9033;DHT22;4551;53.164;8.210;2023-07-22T02:57:48;12.40;99.90
9033;DHT22;4551;53.164;8.210;2023-07-22T03:00:18;12.40;99.90
9033;DHT22;4551;53.164;8.210;2023-07-22T03:02:50;12.40;99.90
9033;DHT22;4551;53.164;8.210;2023-07-22T03:05:19;12.40;99.90
9033;DHT22;4551;53.164;8.210;2023-07-22T03:07:49;12.30;99.90
9033;DHT22;4551;53.164;8.210;2023-07-22T03:10:17;12.30;99.90
9033;DHT22;4551;53.164;8.210;2023-07-22T03:12:45;12.30;99.90
9033;DHT22;4551;53.164;8.210;2023-07-22T03:15:13;12.30;99.90
9033;DHT22;4551;53.164;8.210;2023-07-22T03:17:41;12.20;99.90
9033;DHT22;4551;53.164;8.210;2023-07-22T03:20:10;12.20;99.90
9033;DHT22;4551;53.164;8.210;2023-07-22T03:22:41;12.20;99.90
9033;DHT22;4551;53.164;8.210;2023-07-22T03:25:11;12.20;99.90
9033;DHT22;4551;53.164;8.210;2023-07-22T03:27:40;12.20;99.90
9033;DHT22;4551;53.164;8.210;2023-07-22T03:30:12;12.20;99.90
9033;DHT22;4551;53.164;8.210;2023-07-22T03:32:42;12.20;99.90
9033;DHT22;4551;53.164;8.210;2023-07-22T03:35:11;12.20;99.90
9033;DHT22;4551;53.164;8.210;2023-07-22T03:37:39;12.10;99.90
9033;DHT22;4551;53.164;8.210;2023-07-22T03:40:11;12.10;99.90
9033;DHT22;4551;53.164;8.210;2023-07-22T03:42:44;12.10;99.90
9033;DHT22;4551;53.164;8.210;2023-07-22T03:45:12;12.00;99.90
9033;DHT22;4551;53.164;8.210;2023-07-22T03:47:40;12.00;99.90
9033;DHT22;4551;53.164;8.210;2023-07-22T03:50:08;12.10;99.90
9033;DHT22;4551;53.164;8.210;2023-07-22T03:52:36;12.10;99.90
9033;DHT22;4551;53.164;8.210;2023-07-22T03:55:05;12.10;99.90
9033;DHT22;4551;53.164;8.210;2023-07-22T03:57:34;12.10;99.90
9033;DHT22;4551;53.164;8.210;2023-07-22T04:00:03;12.00;99.90
9033;DHT22;4551;53.164;8.210;2023-07-22T04:02:32;12.00;99.90
9033;DHT22;4551;53.164;8.210;2023-07-22T04:05:00;12.00;99.90
9033;DHT22;4551;53.164;8.210;2023-07-22T04:07:28;12.10;99.90
9033;DHT22;4551;53.164;8.210;2023-07-22T04:09:56;12.00;99.90
9033;DHT22;4551;53.164;8.210;2023-07-22T04:12:24;12.10;99.90
9033;DHT22;4551;53.164;8.210;2023-07-22T04:14:53;12.00;99.90
9033;DHT22;4551;53.164;8.210;2023-07-22T04:17:21;12.00;99.90
9033;DHT22;4551;53.164;8.210;2023-07-22T04:19:50;12.00;99.90
9033;DHT22;4551;53.164;8.210;2023-07-22T04:22:18;12.00;99.90
9033;DHT22;4551;53.164;8.210;2023-07-22T04:24:47;12.00;99.90
9033;DHT22;4551;53.164;8.210;2023-07-22T04:27:16;12.00;99.90
9033;DHT22;4551;53.164;8.210;2023-07-22T04:29:44;12.00;99.90
9033;DHT22;4551;53.164;8.210;2023-07-22T04:32:14;12.00;99.90
9033;DHT22;4551;53.164;8.210;2023-07-22T04:34:42;12.00;99.90
9033;DHT22;4551;53.164;8.210;2023-07-22T04:37:10;12.00;99.90
9033;DHT22;4551;53.164;8.210;2023-07-22T04:39:39;12.10;99.90
9033;DHT22;4551;53.164;8.210;2023-07-22T04:42:07;12.10;99.90
9033;DHT22;4551;53.164;8.210;2023-07-22T04:44:35;12.10;99.90
9033;DHT22;4551;53.164;8.210;2023-07-22T04:47:04;12.10;99.90
9033;DHT22;4551;53.164;8.210;2023-07-22T04:49:37;12.20;99.90
9033;DHT22;4551;53.164;8.210;2023-07-22T04:52:05;12.20;99.90
9033;DHT22;4551;53.164;8.210;2023-07-22T04:54:34;12.20;99.90
9033;DHT22;4551;53.164;8.210;2023-07-22T04:57:02;12.20;99.90
9033;DHT22;4551;53.164;8.210;2023-07-22T04:59:30;12.30;99.90
9033;DHT22;4551;53.164;8.210;2023-07-22T05:01:58;12.30;99.90
9033;DHT22;4551;53.164;8.210;2023-07-22T05:04:26;12.30;99.90
9033;DHT22;4551;53.164;8.210;2023-07-22T05:06:55;12.40;99.90
9033;DHT22;4551;53.164;8.210;2023-07-22T05:09:23;12.40;99.90
9033;DHT22;4551;53.164;8.210;2023-07-22T05:11:51;12.50;99.90
9033;DHT22;4551;53.164;8.210;2023-07-22T05:14:20;12.50;99.90
9033;DHT22;4551;53.164;8.210;2023-07-22T05:16:48;12.60;99.90
9033;DHT22;4551;53.164;8.210;2023-07-22T05:19:16;12.60;99.90
9033;DHT22;4551;53.164;8.210;2023-07-22T05:21:45;12.60;99.90
9033;DHT22;4551;53.164;8.210;2023-07-22T05:24:15;12.70;99.90
9033;DHT22;4551;53.164;8.210;2023-07-22T05:26:43;12.70;99.90
9033;DHT22;4551;53.164;8.210;2023-07-22T05:29:29;12.80;99.90
9033;DHT22;4551;53.164;8.210;2023-07-22T05:31:57;12.80;99.90
9033;DHT22;4551;53.164;8.210;2023-07-22T05:34:25;12.90;99.90
9033;DHT22;4551;53.164;8.210;2023-07-22T05:36:53;12.90;99.90
9033;DHT22;4551;53.164;8.210;2023-07-22T05:39:23;13.00;99.90
9033;DHT22;4551;53.164;8.210;2023-07-22T05:41:51;13.00;99.90
9033;DHT22;4551;53.164;8.210;2023-07-22T05:44:19;13.10;99.90
9033;DHT22;4551;53.164;8.210;2023-07-22T05:46:47;13.10;99.90
9033;DHT22;4551;53.164;8.210;2023-07-22T05:49:16;13.20;99.90
9033;DHT22;4551;53.164;8.210;2023-07-22T05:51:44;13.20;99.90
9033;DHT22;4551;53.164;8.210;2023-07-22T05:54:12;13.30;99.90
9033;DHT22;4551;53.164;8.210;2023-07-22T05:56:41;13.30;99.90
9033;DHT22;4551;53.164;8.210;2023-07-22T05:59:09;13.30;99.90
9033;DHT22;4551;53.164;8.210;2023-07-22T06:01:37;13.40;99.90
9033;DHT22;4551;53.164;8.210;2023-07-22T06:04:06;13.50;99.90
9033;DHT22;4551;53.164;8.210;2023-07-22T06:06:34;13.50;99.90
9033;DHT22;4551;53.164;8.210;2023-07-22T06:09:02;13.50;99.90
9033;DHT22;4551;53.164;8.210;2023-07-22T06:11:31;13.50;99.90
9033;DHT22;4551;53.164;8.210;2023-07-22T06:14:00;13.60;99.90
9033;DHT22;4551;53.164;8.210;2023-07-22T06:16:29;13.60;99.90
9033;DHT22;4551;53.164;8.210;2023-07-22T06:18:57;13.70;99.90
9033;DHT22;4551;53.164;8.210;2023-07-22T06:21:25;13.70;99.90
9033;DHT22;4551;53.164;8.210;2023-07-22T06:23:53;13.70;99.90
9033;DHT22;4551;53.164;8.210;2023-07-22T06:26:21;13.80;99.90
9033;DHT22;4551;53.164;8.210;2023-07-22T06:28:49;13.80;99.90
9033;DHT22;4551;53.164;8.210;2023-07-22T06:31:19;13.80;99.90
9033;DHT22;4551;53.164;8.210;2023-07-22T06:33:48;13.90;99.90
9033;DHT22;4551;53.164;8.210;2023-07-22T06:36:16;13.90;99.90
9033;DHT22;4551;53.164;8.210;2023-07-22T06:38:44;14.00;99.90
9033;DHT22;4551;53.164;8.210;2023-07-22T06:41:12;14.10;99.90
9033;DHT22;4551;53.164;8.210;2023-07-22T06:43:40;14.10;99.90
9033;DHT22;4551;53.164;8.210;2023-07-22T06:46:08;14.20;99.90
9033;DHT22;4551;53.164;8.210;2023-07-22T06:48:38;14.20;99.90
9033;DHT22;4551;53.164;8.210;2023-07-22T06:51:06;14.30;99.90
9033;DHT22;4551;53.164;8.210;2023-07-22T06:53:34;14.40;99.90
9033;DHT22;4551;53.164;8.210;2023-07-22T06:56:02;14.40;99.90
9033;DHT22;4551;53.164;8.210;2023-07-22T06:58:30;14.50;99.90
9033;DHT22;4551;53.164;8.210;2023-07-22T07:00:59;14.50;99.90
9033;DHT22;4551;53.164;8.210;2023-07-22T07:03:27;14.50;99.90
9033;DHT22;4551;53.164;8.210;2023-07-22T07:05:57;14.60;99.90
9033;DHT22;4551;53.164;8.210;2023-07-22T07:08:25;14.60;99.90
9033;DHT22;4551;53.164;8.210;2023-07-22T07:10:53;14.70;99.90
9033;DHT22;4551;53.164;8.210;2023-07-22T07:13:22;14.80;99.90
9033;DHT22;4551;53.164;8.210;2023-07-22T07:15:50;14.80;99.90
9033;DHT22;4551;53.164;8.210;2023-07-22T07:18:18;14.80;99.90
9033;DHT22;4551;53.164;8.210;2023-07-22T07:20:46;14.90;99.90
9033;DHT22;4551;53.164;8.210;2023-07-22T07:23:18;15.00;99.90
9033;DHT22;4551;53.164;8.210;2023-07-22T07:25:46;15.00;99.90
9033;DHT22;4551;53.164;8.210;2023-07-22T07:28:14;15.00;99.90
9033;DHT22;4551;53.164;8.210;2023-07-22T07:30:45;15.10;99.90
9033;DHT22;4551;53.164;8.210;2023-07-22T07:33:13;15.10;99.90
9033;DHT22;4551;53.164;8.210;2023-07-22T07:35:41;15.10;99.90
9033;DHT22;4551;53.164;8.210;2023-07-22T07:38:13;15.20;99.90
9033;DHT22;4551;53.164;8.210;2023-07-22T07:40:42;15.20;99.90
9033;DHT22;4551;53.164;8.210;2023-07-22T07:43:11;15.30;99.90
9033;DHT22;4551;53.164;8.210;2023-07-22T07:45:39;15.30;99.90
9033;DHT22;4551;53.164;8.210;2023-07-22T07:48:07;15.40;99.90
9033;DHT22;4551;53.164;8.210;2023-07-22T07:50:35;15.40;99.90
9033;DHT22;4551;53.164;8.210;2023-07-22T07:53:03;15.50;99.90
9033;DHT22;4551;53.164;8.210;2023-07-22T07:55:31;15.50;99.90
9033;DHT22;4551;53.164;8.210;2023-07-22T07:58:01;15.60;99.90
9033;DHT22;4551;53.164;8.210;2023-07-22T08:00:29;15.60;99.90
9033;DHT22;4551;53.164;8.210;2023-07-22T08:02:57;15.70;99.90
9033;DHT22;4551;53.164;8.210;2023-07-22T08:05:25;15.80;99.90
9033;DHT22;4551;53.164;8.210;2023-07-22T08:07:53;15.80;99.90
9033;DHT22;4551;53.164;8.210;2023-07-22T08:10:21;15.90;99.90
9033;DHT22;4551;53.164;8.210;2023-07-22T08:12:49;16.00;99.90
9033;DHT22;4551;53.164;8.210;2023-07-22T08:15:18;16.00;99.90
9033;DHT22;4551;53.164;8.210;2023-07-22T08:17:46;16.10;99.90
9033;DHT22;4551;53.164;8.210;2023-07-22T08:20:14;16.20;99.90
9033;DHT22;4551;53.164;8.210;2023-07-22T08:22:43;16.20;99.90
9033;DHT22;4551;53.164;8.210;2023-07-22T08:25:11;16.30;99.90
9033;DHT22;4551;53.164;8.210;2023-07-22T08:27:39;16.30;99.90
9033;DHT22;4551;53.164;8.210;2023-07-22T08:30:07;16.30;99.90
9033;DHT22;4551;53.164;8.210;2023-07-22T08:32:37;16.40;99.90
9033;DHT22;4551;53.164;8.210;2023-07-22T08:35:05;16.40;99.90
9033;DHT22;4551;53.164;8.210;2023-07-22T08:37:33;16.40;99.90
9033;DHT22;4551;53.164;8.210;2023-07-22T08:40:02;16.50;99.90
9033;DHT22;4551;53.164;8.210;2023-07-22T08:42:30;16.50;99.90
9033;DHT22;4551;53.164;8.210;2023-07-22T08:44:59;16.50;99.90
9033;DHT22;4551;53.164;8.210;2023-07-22T08:47:29;16.50;99.90
9033;DHT22;4551;53.164;8.210;2023-07-22T08:50:01;16.50;99.90
9033;DHT22;4551;53.164;8.210;2023-07-22T08:52:29;16.50;99.90
9033;DHT22;4551;53.164;8.210;2023-07-22T08:54:58;16.60;99.90
9033;DHT22;4551;53.164;8.210;2023-07-22T08:57:26;16.60;99.90
9033;DHT22;4551;53.164;8.210;2023-07-22T08:59:57;16.70;99.90
9033;DHT22;4551;53.164;8.210;2023-07-22T09:02:25;16.70;99.90
9033;DHT22;4551;53.164;8.210;2023-07-22T09:04:53;16.70;99.90
9033;DHT22;4551;53.164;8.210;2023-07-22T09:07:24;16.80;99.90
9033;DHT22;4551;53.164;8.210;2023-07-22T09:09:52;16.80;99.90
9033;DHT22;4551;53.164;8.210;2023-07-22T09:12:21;16.80;99.90
9033;DHT22;4551;53.164;8.210;2023-07-22T09:14:49;16.90;99.90
9033;DHT22;4551;53.164;8.210;2023-07-22T09:17:17;17.00;99.90
9033;DHT22;4551;53.164;8.210;2023-07-22T09:19:45;17.00;99.90
9033;DHT22;4551;53.164;8.210;2023-07-22T09:22:13;17.10;99.90
9033;DHT22;4551;53.164;8.210;2023-07-22T09:24:43;17.20;99.90
9033;DHT22;4551;53.164;8.210;2023-07-22T09:27:11;17.30;99.90
9033;DHT22;4551;53.164;8.210;2023-07-22T09:29:39;17.30;99.90
9033;DHT22;4551;53.164;8.210;2023-07-22T09:32:07;17.40;99.90
9033;DHT22;4551;53.164;8.210;2023-07-22T09:34:35;17.40;99.90
9033;DHT22;4551;53.164;8.210;2023-07-22T09:37:03;17.50;99.90
9033;DHT22;4551;53.164;8.210;2023-07-22T09:39:32;17.50;99.90
9033;DHT22;4551;53.164;8.210;2023-07-22T09:42:01;17.60;99.90
9033;DHT22;4551;53.164;8.210;2023-07-22T09:44:30;17.60;99.90
9033;DHT22;4551;53.164;8.210;2023-07-22T09:47:03;17.60;99.90
9033;DHT22;4551;53.164;8.210;2023-07-22T09:49:33;17.60;99.90
9033;DHT22;4551;53.164;8.210;2023-07-22T09:52:03;17.70;99.90
9033;DHT22;4551;53.164;8.210;2023-07-22T09:54:46;17.70;99.90
9033;DHT22;4551;53.164;8.210;2023-07-22T09:57:15;17.70;99.90
9033;DHT22;4551;53.164;8.210;2023-07-22T09:59:43;17.70;99.90
9033;DHT22;4551;53.164;8.210;2023-07-22T10:02:13;17.80;99.90
9033;DHT22;4551;53.164;8.210;2023-07-22T10:04:41;17.80;99.90
9033;DHT22;4551;53.164;8.210;2023-07-22T10:07:10;17.80;99.90
9033;DHT22;4551;53.164;8.210;2023-07-22T10:09:38;17.90;99.90
9033;DHT22;4551;53.164;8.210;2023-07-22T10:12:07;18.00;99.90
9033;DHT22;4551;53.164;8.210;2023-07-22T10:14:37;18.00;99.90
9033;DHT22;4551;53.164;8.210;2023-07-22T10:17:05;18.10;99.90
9033;DHT22;4551;53.164;8.210;2023-07-22T10:19:34;18.10;99.90
9033;DHT22;4551;53.164;8.210;2023-07-22T10:22:02;18.20;99.90
9033;DHT22;4551;53.164;8.210;2023-07-22T10:24:31;18.30;99.90
9033;DHT22;4551;53.164;8.210;2023-07-22T10:26:59;18.30;99.90
9033;DHT22;4551;53.164;8.210;2023-07-22T10:29:27;18.30;99.90
9033;DHT22;4551;53.164;8.210;2023-07-22T10:31:57;18.40;99.90
9033;DHT22;4551;53.164;8.210;2023-07-22T10:34:26;18.30;99.90
9033;DHT22;4551;53.164;8.210;2023-07-22T10:36:55;18.40;99.90
9033;DHT22;4551;53.164;8.210;2023-07-22T10:39:27;18.50;99.90
9033;DHT22;4551;53.164;8.210;2023-07-22T10:41:59;18.40;99.90
9033;DHT22;4551;53.164;8.210;2023-07-22T10:44:30;18.50;99.90
9033;DHT22;4551;53.164;8.210;2023-07-22T10:46:59;18.50;99.90
9033;DHT22;4551;53.164;8.210;2023-07-22T10:49:28;18.40;99.90
9033;DHT22;4551;53.164;8.210;2023-07-22T10:52:10;18.40;99.90
9033;DHT22;4551;53.164;8.210;2023-07-22T10:54:38;18.40;99.90
9033;DHT22;4551;53.164;8.210;2023-07-22T10:59:50;18.30;99.90
9033;DHT22;4551;53.164;8.210;2023-07-22T11:02:26;18.30;99.90
9033;DHT22;4551;53.164;8.210;2023-07-22T11:04:56;18.30;99.90
9033;DHT22;4551;53.164;8.210;2023-07-22T11:07:31;18.30;99.90
9033;DHT22;4551;53.164;8.210;2023-07-22T11:10:10;18.30;99.90
9033;DHT22;4551;53.164;8.210;2023-07-22T11:12:38;18.30;99.90
9033;DHT22;4551;53.164;8.210;2023-07-22T11:15:07;18.30;99.90
9033;DHT22;4551;53.164;8.210;2023-07-22T11:17:37;18.30;99.90
9033;DHT22;4551;53.164;8.210;2023-07-22T11:20:05;18.20;99.90
9033;DHT22;4551;53.164;8.210;2023-07-22T11:22:33;18.20;99.90
9033;DHT22;4551;53.164;8.210;2023-07-22T11:25:02;18.20;99.90
9033;DHT22;4551;53.164;8.210;2023-07-22T11:27:30;18.10;99.90
9033;DHT22;4551;53.164;8.210;2023-07-22T11:29:58;18.10;99.90
9033;DHT22;4551;53.164;8.210;2023-07-22T11:32:27;18.10;99.90
9033;DHT22;4551;53.164;8.210;2023-07-22T11:34:56;18.00;99.90
9033;DHT22;4551;53.164;8.210;2023-07-22T11:37:24;18.00;99.90
9033;DHT22;4551;53.164;8.210;2023-07-22T11:39:59;17.90;99.90
9033;DHT22;4551;53.164;8.210;2023-07-22T11:42:27;17.90;99.90
9033;DHT22;4551;53.164;8.210;2023-07-22T11:44:56;17.80;99.90
9033;DHT22;4551;53.164;8.210;2023-07-22T11:47:28;17.80;99.90
9033;DHT22;4551;53.164;8.210;2023-07-22T11:49:58;17.80;99.90
9033;DHT22;4551;53.164;8.210;2023-07-22T11:52:26;17.70;99.90
9033;DHT22;4551;53.164;8.210;2023-07-22T11:54:54;17.60;99.90
9033;DHT22;4551;53.164;8.210;2023-07-22T11:57:27;17.60;99.90
9033;DHT22;4551;53.164;8.210;2023-07-22T11:59:56;17.50;99.90
9033;DHT22;4551;53.164;8.210;2023-07-22T12:02:24;17.40;99.90
9033;DHT22;4551;53.164;8.210;2023-07-22T12:04:53;17.40;99.90
9033;DHT22;4551;53.164;8.210;2023-07-22T12:07:23;17.30;99.90
9033;DHT22;4551;53.164;8.210;2023-07-22T12:09:52;17.30;99.90
9033;DHT22;4551;53.164;8.210;2023-07-22T12:12:20;17.20;99.90
9033;DHT22;4551;53.164;8.210;2023-07-22T12:14:48;17.20;99.90
9033;DHT22;4551;53.164;8.210;2023-07-22T12:17:17;17.10;99.90
9033;DHT22;4551;53.164;8.210;2023-07-22T12:19:51;17.10;99.90
9033;DHT22;4551;53.164;8.210;2023-07-22T12:22:20;17.10;99.90
9033;DHT22;4551;53.164;8.210;2023-07-22T12:24:49;17.10;99.90
9033;DHT22;4551;53.164;8.210;2023-07-22T12:27:17;17.10;99.90
9033;DHT22;4551;53.164;8.210;2023-07-22T12:29:45;17.10;99.90
9033;DHT22;4551;53.164;8.210;2023-07-22T12:32:13;17.10;99.90
9033;DHT22;4551;53.164;8.210;2023-07-22T12:34:41;17.10;99.90
9033;DHT22;4551;53.164;8.210;2023-07-22T12:37:09;17.10;99.90
9033;DHT22;4551;53.164;8.210;2023-07-22T12:39:37;17.10;99.90
9033;DHT22;4551;53.164;8.210;2023-07-22T12:42:07;17.10;99.90
9033;DHT22;4551;53.164;8.210;2023-07-22T12:44:35;17.00;99.90
9033;DHT22;4551;53.164;8.210;2023-07-22T12:47:03;17.00;99.90
9033;DHT22;4551;53.164;8.210;2023-07-22T12:49:31;17.00;99.90
9033;DHT22;4551;53.164;8.210;2023-07-22T12:51:59;17.00;99.90
9033;DHT22;4551;53.164;8.210;2023-07-22T12:54:31;17.00;99.90
9033;DHT22;4551;53.164;8.210;2023-07-22T12:56:59;17.00;99.90
9033;DHT22;4551;53.164;8.210;2023-07-22T12:59:28;17.00;99.90
9033;DHT22;4551;53.164;8.210;2023-07-22T13:01:58;17.00;99.90
9033;DHT22;4551;53.164;8.210;2023-07-22T13:04:26;17.00;99.90
9033;DHT22;4551;53.164;8.210;2023-07-22T13:06:54;16.90;99.90
9033;DHT22;4551;53.164;8.210;2023-07-22T13:09:22;16.90;99.90
9033;DHT22;4551;53.164;8.210;2023-07-22T13:11:50;16.90;99.90
9033;DHT22;4551;53.164;8.210;2023-07-22T13:14:18;16.90;99.90
9033;DHT22;4551;53.164;8.210;2023-07-22T13:16:48;16.90;99.90
9033;DHT22;4551;53.164;8.210;2023-07-22T13:19:16;16.80;99.90
9033;DHT22;4551;53.164;8.210;2023-07-22T13:21:44;16.80;99.90
9033;DHT22;4551;53.164;8.210;2023-07-22T13:24:12;16.80;99.90
9033;DHT22;4551;53.164;8.210;2023-07-22T13:26:41;16.80;99.90
9033;DHT22;4551;53.164;8.210;2023-07-22T13:29:09;16.80;99.90
9033;DHT22;4551;53.164;8.210;2023-07-22T13:31:37;16.80;99.90
9033;DHT22;4551;53.164;8.210;2023-07-22T13:34:06;16.80;99.90
9033;DHT22;4551;53.164;8.210;2023-07-22T13:36:34;16.80;99.90
9033;DHT22;4551;53.164;8.210;2023-07-22T13:39:02;16.80;99.90
9033;DHT22;4551;53.164;8.210;2023-07-22T13:41:31;16.70;99.90
9033;DHT22;4551;53.164;8.210;2023-07-22T13:44:01;16.70;99.90
9033;DHT22;4551;53.164;8.210;2023-07-22T13:46:29;16.70;99.90
9033;DHT22;4551;53.164;8.210;2023-07-22T13:48:57;16.70;99.90
9033;DHT22;4551;53.164;8.210;2023-07-22T13:51:27;16.60;99.90
9033;DHT22;4551;53.164;8.210;2023-07-22T13:53:55;16.60;99.90
9033;DHT22;4551;53.164;8.210;2023-07-22T13:56:25;16.60;99.90
9033;DHT22;4551;53.164;8.210;2023-07-22T13:58:53;16.60;99.90
9033;DHT22;4551;53.164;8.210;2023-07-22T14:01:22;16.50;99.90
9033;DHT22;4551;53.164;8.210;2023-07-22T14:03:50;16.60;99.90
9033;DHT22;4551;53.164;8.210;2023-07-22T14:06:18;16.50;99.90
9033;DHT22;4551;53.164;8.210;2023-07-22T14:08:48;16.60;99.90
9033;DHT22;4551;53.164;8.210;2023-07-22T14:11:16;16.60;99.90
9033;DHT22;4551;53.164;8.210;2023-07-22T14:13:44;16.60;99.90
9033;DHT22;4551;53.164;8.210;2023-07-22T14:16:12;16.50;99.90
9033;DHT22;4551;53.164;8.210;2023-07-22T14:18:49;16.50;99.90
9033;DHT22;4551;53.164;8.210;2023-07-22T14:21:18;16.50;99.90
9033;DHT22;4551;53.164;8.210;2023-07-22T14:23:48;16.50;99.90
9033;DHT22;4551;53.164;8.210;2023-07-22T14:26:16;16.50;99.90
9033;DHT22;4551;53.164;8.210;2023-07-22T14:28:45;16.50;99.90
9033;DHT22;4551;53.164;8.210;2023-07-22T14:31:13;16.50;99.90
9033;DHT22;4551;53.164;8.210;2023-07-22T14:33:41;16.40;99.90
9033;DHT22;4551;53.164;8.210;2023-07-22T14:36:09;16.40;99.90
9033;DHT22;4551;53.164;8.210;2023-07-22T14:38:37;16.40;99.90
9033;DHT22;4551;53.164;8.210;2023-07-22T14:41:06;16.40;99.90
9033;DHT22;4551;53.164;8.210;2023-07-22T14:43:34;16.40;99.90
9033;DHT22;4551;53.164;8.210;2023-07-22T14:46:02;16.40;99.90
9033;DHT22;4551;53.164;8.210;2023-07-22T14:48:31;16.40;99.90
9033;DHT22;4551;53.164;8.210;2023-07-22T14:50:59;16.40;99.90
9033;DHT22;4551;53.164;8.210;2023-07-22T14:53:27;16.40;99.90
9033;DHT22;4551;53.164;8.210;2023-07-22T14:55:55;16.40;99.90
9033;DHT22;4551;53.164;8.210;2023-07-22T14:58:25;16.40;99.90
9033;DHT22;4551;53.164;8.210;2023-07-22T15:00:53;16.30;99.90
9033;DHT22;4551;53.164;8.210;2023-07-22T15:03:21;16.30;99.90
9033;DHT22;4551;53.164;8.210;2023-07-22T15:05:49;16.30;99.90
9033;DHT22;4551;53.164;8.210;2023-07-22T15:08:17;16.30;99.90
9033;DHT22;4551;53.164;8.210;2023-07-22T15:10:45;16.20;99.90
9033;DHT22;4551;53.164;8.210;2023-07-22T15:13:13;16.10;99.90
9033;DHT22;4551;53.164;8.210;2023-07-22T15:15:42;16.10;99.90
9033;DHT22;4551;53.164;8.210;2023-07-22T15:18:11;16.00;99.90
9033;DHT22;4551;53.164;8.210;2023-07-22T15:20:39;15.90;99.90
9033;DHT22;4551;53.164;8.210;2023-07-22T15:23:07;15.90;99.90
9033;DHT22;4551;53.164;8.210;2023-07-22T15:25:35;15.90;99.90
9033;DHT22;4551;53.164;8.210;2023-07-22T15:28:03;15.80;99.90
9033;DHT22;4551;53.164;8.210;2023-07-22T15:30:31;15.70;99.90
9033;DHT22;4551;53.164;8.210;2023-07-22T15:33:01;15.70;99.90
9033;DHT22;4551;53.164;8.210;2023-07-22T15:35:29;15.60;99.90
9033;DHT22;4551;53.164;8.210;2023-07-22T15:37:57;15.60;99.90
9033;DHT22;4551;53.164;8.210;2023-07-22T15:40:25;15.60;99.90
9033;DHT22;4551;53.164;8.210;2023-07-22T15:42:53;15.60;99.90
9033;DHT22;4551;53.164;8.210;2023-07-22T15:45:21;15.60;99.90
9033;DHT22;4551;53.164;8.210;2023-07-22T15:47:50;15.60;99.90
9033;DHT22;4551;53.164;8.210;2023-07-22T15:50:19;15.60;99.90
9033;DHT22;4551;53.164;8.210;2023-07-22T15:52:47;15.60;99.90
9033;DHT22;4551;53.164;8.210;2023-07-22T15:55:15;15.60;99.90
9033;DHT22;4551;53.164;8.210;2023-07-22T15:57:45;15.60;99.90
9033;DHT22;4551;53.164;8.210;2023-07-22T16:00:13;15.60;99.90
9033;DHT22;4551;53.164;8.210;2023-07-22T16:02:41;15.60;99.90
9033;DHT22;4551;53.164;8.210;2023-07-22T16:05:09;15.60;99.90
9033;DHT22;4551;53.164;8.210;2023-07-22T16:07:50;15.60;99.90
9033;DHT22;4551;53.164;8.210;2023-07-22T16:10:18;15.60;99.90
9033;DHT22;4551;53.164;8.210;2023-07-22T16:12:46;15.70;99.90
9033;DHT22;4551;53.164;8.210;2023-07-22T16:15:14;15.70;99.90